Time;durP1;ratioP1;P1;durP2;ratioP2;P2;SDS_P1;SDS_P2;PMS_P1;PMS_P2;Temp;Humidity;BMP_temperature;BMP_pressure;BME280_temperature;BME280_humidity;BME280_pressure;Samples;Min_cycle;Max_cycle;Signal;HPM_P1;HPM_P2
2023/02/17 00:00:20;;;;;;;5.70;4.15;;;;;;;19.31;45.56;101901.81;5122301;27;20030;-71
2023/02/17 00:02:46;;;;;;;4.88;3.78;;;;;;;19.31;46.13;101905.31;5123200;27;20030;-70
2023/02/17 00:05:11;;;;;;;5.65;3.92;;;;;;;19.33;45.88;101911.31;5123234;27;20015;-70
2023/02/17 00:07:36;;;;;;;5.53;4.10;;;;;;;19.32;45.96;101909.63;5122730;27;20039;-71
2023/02/17 00:10:02;;;;;;;5.45;4.13;;;;;;;19.30;45.97;101908.06;5122624;27;20258;-71
2023/02/17 00:12:27;;;;;;;6.28;4.20;;;;;;;19.27;45.80;101905.63;5122361;27;20577;-70
2023/02/17 00:14:52;;;;;;;5.78;4.07;;;;;;;19.26;45.90;101903.94;5103077;27;20081;-71
2023/02/17 00:17:18;;;;;;;6.70;4.40;;;;;;;19.29;45.85;101909.84;5122125;27;20038;-71
2023/02/17 00:19:43;;;;;;;6.97;4.47;;;;;;;19.27;46.09;101901.19;5121796;27;20035;-72
2023/02/17 00:22:09;;;;;;;5.70;4.65;;;;;;;19.27;45.58;101903.00;5122749;27;20032;-70
2023/02/17 00:24:37;;;;;;;7.97;5.00;;;;;;;19.26;45.93;101902.13;5122827;27;20031;-73
2023/02/17 00:27:03;;;;;;;6.38;5.05;;;;;;;19.23;45.84;101893.56;5122157;27;20918;-70
2023/02/17 00:29:28;;;;;;;5.95;4.72;;;;;;;19.24;45.85;101896.09;5122536;27;20027;-70
2023/02/17 00:31:54;;;;;;;6.28;4.90;;;;;;;19.24;45.50;101888.19;5122566;27;20040;-70
2023/02/17 00:34:19;;;;;;;5.63;4.78;;;;;;;19.23;45.81;101886.47;5122702;27;20415;-70
2023/02/17 00:36:45;;;;;;;6.30;5.22;;;;;;;19.23;45.88;101888.28;5122207;28;20068;-70
2023/02/17 00:39:13;;;;;;;6.78;5.30;;;;;;;19.20;45.97;101884.91;5122753;28;20039;-70
2023/02/17 00:41:38;;;;;;;6.22;5.30;;;;;;;19.20;45.85;101891.97;5122197;27;20027;-70
2023/02/17 00:44:04;;;;;;;6.38;5.05;;;;;;;19.14;45.95;101877.41;5122255;28;20398;-70
2023/02/17 00:46:29;;;;;;;8.15;4.78;;;;;;;19.16;45.65;101874.66;5122101;27;20031;-69
2023/02/17 00:48:56;;;;;;;6.40;4.50;;;;;;;19.18;45.95;101872.75;5122200;27;20118;-70
2023/02/17 00:51:21;;;;;;;6.05;4.28;;;;;;;19.18;45.80;101867.47;5121823;27;20069;-70
2023/02/17 00:53:47;;;;;;;6.55;4.55;;;;;;;19.16;45.61;101869.38;5121866;28;20063;-71
2023/02/17 00:56:12;;;;;;;5.22;4.18;;;;;;;19.17;45.47;101876.34;5121519;28;20028;-70
2023/02/17 00:58:38;;;;;;;5.50;4.20;;;;;;;19.15;45.75;101873.81;5121577;27;20538;-70
2023/02/17 01:01:04;;;;;;;4.93;3.80;;;;;;;19.13;45.68;101865.13;5121594;28;20034;-70
2023/02/17 01:03:29;;;;;;;5.25;3.75;;;;;;;19.12;45.76;101867.88;5122060;28;20471;-71
2023/02/17 01:05:55;;;;;;;5.10;3.75;;;;;;;19.15;45.68;101871.19;5121472;28;20374;-72
2023/02/17 01:08:22;;;;;;;5.22;3.60;;;;;;;19.12;45.47;101874.03;5121662;27;20070;-70
2023/02/17 01:10:49;;;;;;;4.78;3.40;;;;;;;19.10;45.66;101870.63;5121451;27;20038;-70
2023/02/17 01:13:16;;;;;;;5.35;3.70;;;;;;;19.11;45.65;101874.13;5121693;28;20035;-70
2023/02/17 01:15:47;;;;;;;4.93;3.97;;;;;;;19.08;45.66;101867.25;5121253;27;20047;-72
2023/02/17 01:18:13;;;;;;;4.28;3.20;;;;;;;19.08;45.50;101872.53;5121593;28;20697;-69
2023/02/17 01:20:40;;;;;;;5.80;3.58;;;;;;;19.08;45.46;101872.53;5121611;27;20063;-70
2023/02/17 01:23:06;;;;;;;4.95;3.35;;;;;;;19.10;45.73;101870.63;5123116;27;20039;-72
2023/02/17 01:25:38;;;;;;;4.35;3.20;;;;;;;19.06;45.57;101876.22;5122823;28;20067;-69
2023/02/17 01:28:05;;;;;;;4.68;3.15;;;;;;;19.08;45.73;101866.41;5123033;27;20064;-70
2023/02/17 01:30:30;;;;;;;5.45;2.95;;;;;;;19.05;45.44;101864.81;5122640;27;20031;-68
2023/02/17 01:32:56;;;;;;;4.25;3.28;;;;;;;19.06;46.06;101879.75;5125430;27;20505;-70
2023/02/17 01:35:21;;;;;;;4.57;3.22;;;;;;;19.05;45.54;101875.38;5125668;27;20539;-69
2023/02/17 01:37:46;;;;;;;5.28;3.45;;;;;;;19.04;45.49;101871.03;5124790;27;20039;-69
2023/02/17 01:40:13;;;;;;;4.60;3.07;;;;;;;19.05;45.35;101872.75;5125208;27;20070;-70
2023/02/17 01:42:38;;;;;;;4.25;2.85;;;;;;;19.03;45.41;101874.66;5124744;27;20267;-69
2023/02/17 01:45:21;;;;;;;4.88;3.10;;;;;;;18.99;45.43;101874.03;5125445;27;20041;-71
2023/02/17 01:47:49;;;;;;;4.32;2.97;;;;;;;19.03;45.29;101874.66;5124891;27;20039;-71
2023/02/17 01:50:17;;;;;;;4.00;2.80;;;;;;;19.00;45.31;101869.59;5125230;27;20042;-70
2023/02/17 01:52:43;;;;;;;4.43;2.85;;;;;;;18.99;45.36;101866.09;5106644;27;20430;-70
2023/02/17 01:55:14;;;;;;;4.63;2.80;;;;;;;18.97;45.35;101862.72;5125041;27;20386;-70
2023/02/17 01:57:43;;;;;;;4.20;2.90;;;;;;;18.96;45.48;101861.03;5124843;27;20035;-70
2023/02/17 02:00:11;;;;;;;3.70;2.60;;;;;;;19.00;45.40;101867.78;5125087;27;20050;-71
2023/02/17 02:02:37;;;;;;;4.93;2.90;;;;;;;18.99;45.22;101879.31;5124628;27;20217;-70
2023/02/17 02:05:03;;;;;;;4.80;2.90;;;;;;;18.97;45.24;101878.56;5125012;27;20491;-70
2023/02/17 02:07:35;;;;;;;4.25;2.92;;;;;;;18.97;45.10;101883.84;5124275;27;20056;-71
2023/02/17 02:10:01;;;;;;;4.60;3.00;;;;;;;18.97;45.19;101875.09;5124126;27;20038;-71
2023/02/17 02:12:38;;;;;;;5.03;2.60;;;;;;;18.96;45.16;101881.31;5124987;27;20038;-71
2023/02/17 02:15:11;;;;;;;4.72;2.90;;;;;;;18.95;45.27;101864.63;5124568;27;20061;-71
2023/02/17 02:18:10;;;;;;;4.63;3.08;;;;;;;18.95;45.10;101869.06;5124154;27;20133;-72
2023/02/17 02:21:08;;;;;;;4.38;2.80;;;;;;;18.92;45.16;101867.47;5122813;27;20092;-70
2023/02/17 02:23:46;;;;;;;4.13;2.78;;;;;;;18.96;44.88;101871.59;5124278;27;20402;-70
2023/02/17 02:26:17;;;;;;;4.68;3.05;;;;;;;18.95;45.10;101874.34;5124349;27;20085;-70
2023/02/17 02:29:10;;;;;;;4.85;3.13;;;;;;;18.93;45.21;101861.25;5124064;27;20474;-70
2023/02/17 02:31:47;;;;;;;4.60;3.30;;;;;;;18.91;45.13;101855.19;5124275;27;20035;-69
2023/02/17 02:34:37;;;;;;;5.47;3.72;;;;;;;18.91;45.24;101855.19;5124121;27;20038;-71
2023/02/17 02:37:11;;;;;;;4.95;3.10;;;;;;;18.91;45.17;101849.09;5113248;27;20043;-71
2023/02/17 02:39:43;;;;;;;4.45;3.03;;;;;;;18.91;45.06;101841.16;5123582;27;20055;-70
2023/02/17 02:42:13;;;;;;;4.78;3.08;;;;;;;18.88;45.09;101829.00;5123436;27;20023;-69
2023/02/17 02:44:39;;;;;;;4.78;3.50;;;;;;;18.86;44.98;101820.34;5123661;27;20058;-71
2023/02/17 02:47:43;;;;;;;4.72;3.33;;;;;;;18.89;45.03;101822.78;5124057;27;20073;-71
2023/02/17 02:50:15;;;;;;;5.20;3.28;;;;;;;18.87;44.93;101821.19;5120340;27;20134;-70
2023/02/17 02:53:03;;;;;;;4.68;3.10;;;;;;;18.85;44.98;101816.88;5123810;27;20776;-72
2023/02/17 02:56:03;;;;;;;4.40;3.10;;;;;;;18.87;44.80;101802.69;5124296;27;20031;-70
2023/02/17 02:58:37;;;;;;;4.63;3.20;;;;;;;18.87;44.97;101802.69;5123618;27;20066;-68
2023/02/17 03:01:05;;;;;;;4.07;2.75;;;;;;;18.83;44.92;101787.06;5123530;27;20031;-70
2023/02/17 03:03:51;;;;;;;5.28;3.22;;;;;;;18.87;45.13;101792.13;5123464;27;20049;-69
2023/02/17 03:06:38;;;;;;;5.30;3.17;;;;;;;18.87;44.96;101792.13;5123343;27;20058;-70
2023/02/17 03:09:08;;;;;;;5.00;3.30;;;;;;;18.86;44.97;101786.00;5123935;27;20107;-69
2023/02/17 03:11:33;;;;;;;4.70;3.00;;;;;;;18.84;44.84;101772.91;5123215;27;20133;-69
2023/02/17 03:14:07;;;;;;;4.38;3.20;;;;;;;18.81;45.07;101769.63;5123140;27;20102;-71
2023/02/17 03:16:34;;;;;;;4.18;2.72;;;;;;;18.84;44.91;101775.53;5122998;27;20050;-70
2023/02/17 03:18:59;;;;;;;4.45;2.78;;;;;;;18.82;44.88;101772.16;5122661;27;20118;-70
2023/02/17 03:21:31;;;;;;;4.07;2.45;;;;;;;18.84;44.85;101769.44;5123338;27;20134;-70
2023/02/17 03:23:57;;;;;;;3.67;2.45;;;;;;;18.82;44.86;101776.59;5123200;27;20063;-70
2023/02/17 03:26:22;;;;;;;5.38;2.88;;;;;;;18.82;44.77;101787.16;5123018;27;20050;-69
2023/02/17 03:28:47;;;;;;;4.65;2.80;;;;;;;18.83;45.08;101781.78;5123580;27;20042;-70
2023/02/17 03:31:13;;;;;;;4.18;2.88;;;;;;;18.81;44.84;101788.94;5122370;27;20375;-70
2023/02/17 03:33:38;;;;;;;3.80;2.47;;;;;;;18.83;44.64;101794.97;5123285;27;20034;-70
2023/02/17 03:36:04;;;;;;;3.78;2.60;;;;;;;18.78;44.82;101780.38;5123057;27;20057;-70
2023/02/17 03:38:29;;;;;;;4.05;2.30;;;;;;;18.81;44.71;101788.94;5122631;27;20035;-70
2023/02/17 03:40:54;;;;;;;4.30;2.30;;;;;;;18.79;44.80;101780.28;5122998;27;20463;-70
2023/02/17 03:43:19;;;;;;;4.32;2.20;;;;;;;18.82;44.71;101785.34;5122397;27;20515;-70
2023/02/17 03:45:45;;;;;;;3.33;2.03;;;;;;;18.79;44.64;101780.28;5122068;27;20033;-69
2023/02/17 03:48:10;;;;;;;3.78;2.47;;;;;;;18.78;44.77;101777.75;5122250;27;20043;-70
2023/02/17 03:50:35;;;;;;;4.75;2.20;;;;;;;18.76;44.81;101762.00;5122729;27;20034;-69
2023/02/17 03:53:00;;;;;;;3.67;2.30;;;;;;;18.79;44.74;101766.25;5122667;27;20037;-69
2023/02/17 03:55:26;;;;;;;3.92;2.25;;;;;;;18.74;44.79;101761.28;5121971;27;20027;-70
2023/02/17 03:57:51;;;;;;;4.47;2.30;;;;;;;18.77;44.80;101760.19;5121928;27;20062;-69
2023/02/17 04:00:17;;;;;;;4.13;2.00;;;;;;;18.77;44.78;101763.72;5122724;27;20031;-69
2023/02/17 04:02:42;;;;;;;3.90;2.15;;;;;;;18.75;44.63;101765.59;5122860;27;20100;-69
2023/02/17 04:05:07;;;;;;;3.80;2.35;;;;;;;18.75;44.67;101773.50;5122290;27;20039;-69
2023/02/17 04:07:33;;;;;;;4.55;2.30;;;;;;;18.77;44.66;101778.69;5122293;27;20039;-71
2023/02/17 04:09:58;;;;;;;3.15;2.00;;;;;;;18.75;44.72;101775.31;5103344;27;20535;-69
2023/02/17 04:12:23;;;;;;;3.67;2.00;;;;;;;18.76;44.75;101783.13;5121426;27;20035;-70
2023/02/17 04:14:48;;;;;;;3.35;1.90;;;;;;;18.76;44.73;101787.56;5122594;27;20402;-70
2023/02/17 04:17:14;;;;;;;3.85;2.15;;;;;;;18.73;44.61;101778.06;5122204;27;20378;-70
2023/02/17 04:19:39;;;;;;;3.15;1.77;;;;;;;18.76;44.62;101790.22;5121314;27;20035;-70
2023/02/17 04:22:07;;;;;;;4.57;2.10;;;;;;;18.76;44.68;101792.84;5121888;27;20070;-69
2023/02/17 04:24:33;;;;;;;4.72;2.15;;;;;;;18.76;44.67;101791.06;5121915;27;20027;-69
2023/02/17 04:26:58;;;;;;;2.95;1.80;;;;;;;18.73;44.73;101788.63;5121876;27;20474;-69
2023/02/17 04:29:24;;;;;;;4.13;2.07;;;;;;;18.63;44.82;101769.09;5122029;27;20044;-70
2023/02/17 04:31:49;;;;;;;3.72;1.83;;;;;;;18.72;44.76;101786.09;5122380;27;20954;-69
2023/02/17 04:34:14;;;;;;;3.63;1.83;;;;;;;18.71;44.90;101790.53;5121749;27;20115;-70
2023/02/17 04:36:39;;;;;;;3.60;1.90;;;;;;;18.70;44.55;101788.00;5121714;28;20470;-70
2023/02/17 04:39:05;;;;;;;3.05;1.70;;;;;;;18.70;44.99;101786.19;5121133;27;20111;-70
2023/02/17 04:41:30;;;;;;;3.97;2.15;;;;;;;18.69;44.70;101781.84;5103528;28;20023;-70
2023/02/17 04:43:55;;;;;;;3.35;1.90;;;;;;;18.69;44.66;101787.13;5121814;28;20035;-69
2023/02/17 04:46:21;;;;;;;3.35;1.70;;;;;;;18.71;44.69;101787.88;5121809;28;20031;-70
2023/02/17 04:48:46;;;;;;;3.42;2.00;;;;;;;18.71;44.64;101794.94;5121593;28;20869;-69
2023/02/17 04:51:11;;;;;;;3.30;1.80;;;;;;;18.71;44.72;101787.88;5121397;28;20034;-71
2023/02/17 04:53:36;;;;;;;4.40;1.70;;;;;;;18.71;44.80;101781.75;5121731;28;21035;-69
2023/02/17 04:56:02;;;;;;;3.35;1.70;;;;;;;18.69;44.65;101787.13;5121683;28;20267;-71
2023/02/17 04:58:27;;;;;;;4.25;1.90;;;;;;;18.66;44.93;101782.94;5121475;28;20984;-70
2023/02/17 05:00:52;;;;;;;2.97;1.60;;;;;;;18.68;44.73;101788.94;5121991;28;20069;-71
2023/02/17 05:03:18;;;;;;;3.42;1.60;;;;;;;18.68;44.60;101790.75;5121567;28;20527;-71
2023/02/17 05:05:44;;;;;;;3.80;1.85;;;;;;;18.67;44.86;101784.63;5122517;27;20039;-70
2023/02/17 05:08:09;;;;;;;2.80;1.60;;;;;;;18.66;44.64;101774.16;5125424;27;20039;-71
2023/02/17 05:10:35;;;;;;;3.05;1.50;;;;;;;18.66;44.70;101779.44;5126115;27;20080;-72
2023/02/17 05:13:00;;;;;;;3.00;1.50;;;;;;;18.66;44.61;101772.38;5125567;27;20035;-70
2023/02/17 05:15:25;;;;;;;3.10;1.42;;;;;;;18.67;44.87;101776.69;5125650;27;20047;-71
2023/02/17 05:17:51;;;;;;;3.05;1.58;;;;;;;18.66;44.67;101766.25;5124980;27;20038;-71
2023/02/17 05:20:16;;;;;;;3.33;1.58;;;;;;;18.65;44.74;101767.19;5124735;27;20156;-72
2023/02/17 05:22:41;;;;;;;3.50;1.80;;;;;;;18.67;44.87;101781.97;5125835;27;20035;-69
2023/02/17 05:25:07;;;;;;;3.53;1.53;;;;;;;18.63;44.73;101769.09;5125787;27;20029;-70
2023/02/17 05:27:33;;;;;;;3.60;1.55;;;;;;;18.63;44.72;101758.53;5125202;27;20271;-69
2023/02/17 05:29:58;;;;;;;2.40;1.40;;;;;;;18.62;44.80;101760.31;5125594;27;20035;-70
2023/02/17 05:32:24;;;;;;;2.83;1.60;;;;;;;18.63;44.74;101762.00;5124271;27;20057;-71
2023/02/17 05:34:49;;;;;;;2.67;1.48;;;;;;;18.62;44.86;101760.31;5106494;27;20031;-68
2023/02/17 05:37:14;;;;;;;2.85;1.40;;;;;;;18.61;44.95;101756.00;5125227;27;20031;-69
2023/02/17 05:39:39;;;;;;;2.22;1.40;;;;;;;18.65;44.75;101769.81;5125269;27;21032;-70
2023/02/17 05:42:05;;;;;;;3.50;1.60;;;;;;;18.66;44.88;101779.44;5125362;27;20164;-70
2023/02/17 05:44:30;;;;;;;2.63;1.30;;;;;;;18.63;44.75;101784.94;5125374;27;20717;-69
2023/02/17 05:46:55;;;;;;;3.47;1.55;;;;;;;18.65;44.89;101793.59;5123737;27;20163;-68
2023/02/17 05:49:21;;;;;;;3.88;1.40;;;;;;;18.65;44.93;101788.31;5125053;27;20031;-70
2023/02/17 05:51:46;;;;;;;3.30;1.50;;;;;;;18.62;44.90;101778.78;5124756;27;20114;-70
2023/02/17 05:54:11;;;;;;;3.05;1.50;;;;;;;18.61;44.94;101776.25;5125221;27;20075;-69
2023/02/17 05:56:37;;;;;;;3.42;1.55;;;;;;;18.62;44.67;101781.44;5124373;27;20486;-69
2023/02/17 05:59:02;;;;;;;3.50;1.85;;;;;;;18.63;44.75;101784.94;5124995;27;20026;-69
2023/02/17 06:01:27;;;;;;;3.20;1.50;;;;;;;18.62;44.98;101778.78;5124451;27;20096;-71
2023/02/17 06:03:52;;;;;;;2.78;1.40;;;;;;;18.60;45.04;101774.59;5124961;27;20078;-70
2023/02/17 06:06:18;;;;;;;2.40;1.38;;;;;;;18.57;44.92;101767.72;5124425;27;20042;-70
2023/02/17 06:08:43;;;;;;;3.50;1.40;;;;;;;18.57;44.73;101766.88;5125014;27;20038;-69
2023/02/17 06:11:08;;;;;;;2.90;1.35;;;;;;;18.56;44.79;101775.72;5124886;27;20069;-71
2023/02/17 06:13:34;;;;;;;2.17;1.33;;;;;;;18.55;44.82;101774.91;5124769;27;20437;-69
2023/02/17 06:15:59;;;;;;;2.45;1.20;;;;;;;18.55;45.05;101774.03;5124038;27;20051;-71
2023/02/17 06:18:24;;;;;;;2.17;1.13;;;;;;;18.58;45.08;101772.06;5102940;27;20528;-69
2023/02/17 06:20:50;;;;;;;2.22;1.13;;;;;;;18.57;45.28;101767.72;5124493;27;20057;-70
2023/02/17 06:23:15;;;;;;;3.50;1.20;;;;;;;18.61;45.19;101769.19;5124550;27;20496;-70
2023/02/17 06:25:41;;;;;;;2.67;1.30;;;;;;;18.64;45.20;101770.78;5124056;27;20078;-71
2023/02/17 06:28:06;;;;;;;2.45;1.10;;;;;;;18.66;45.44;101766.25;5124327;27;20115;-70
2023/02/17 06:30:31;;;;;;;2.97;1.10;;;;;;;18.65;45.19;101757.47;5124148;27;20035;-70
2023/02/17 06:32:58;;;;;;;2.50;1.10;;;;;;;18.72;45.10;101765.78;5104524;27;20634;-69
2023/02/17 06:35:23;;;;;;;2.80;1.10;;;;;;;18.74;45.37;101774.47;5124940;27;20045;-69
2023/02/17 06:37:48;;;;;;;2.50;1.20;;;;;;;18.78;45.36;101772.47;5125379;27;20038;-70
2023/02/17 06:40:14;;;;;;;2.38;1.15;;;;;;;18.76;45.22;101766.44;5125153;27;20035;-70
2023/02/17 06:42:39;;;;;;;2.90;1.17;;;;;;;18.79;45.39;101759.16;5123767;27;20035;-69
2023/02/17 06:45:05;;;;;;;2.43;1.20;;;;;;;18.83;45.36;101754.50;5123980;27;20023;-69
2023/02/17 06:47:31;;;;;;;3.55;1.20;;;;;;;18.87;45.36;101761.28;5123748;27;20267;-70
2023/02/17 06:49:57;;;;;;;2.85;1.20;;;;;;;18.87;45.14;101748.09;5124134;27;20027;-69
2023/02/17 06:52:22;;;;;;;2.45;1.08;;;;;;;18.87;45.14;101741.94;5104987;27;20027;-67
2023/02/17 06:54:47;;;;;;;2.25;1.20;;;;;;;18.90;44.97;101755.81;5124152;27;20050;-69
2023/02/17 06:57:12;;;;;;;8.93;1.60;;;;;;;18.91;45.21;101743.44;5123196;27;20157;-69
2023/02/17 06:59:38;;;;;;;2.47;1.23;;;;;;;18.85;45.36;101745.56;5123210;27;20259;-68
2023/02/17 07:02:03;;;;;;;2.60;1.20;;;;;;;18.94;45.27;101756.41;5123503;27;20080;-68
2023/02/17 07:04:28;;;;;;;3.50;1.40;;;;;;;18.96;45.93;101765.94;5123740;27;20035;-68
2023/02/17 07:06:54;;;;;;;3.83;1.52;;;;;;;18.98;45.93;101768.47;5123069;27;20652;-68
2023/02/17 07:09:19;;;;;;;2.03;1.20;;;;;;;18.95;45.79;101772.16;5123458;27;20023;-68
2023/02/17 07:11:44;;;;;;;2.45;1.20;;;;;;;18.97;45.87;101780.81;5123196;27;21200;-70
2023/02/17 07:14:09;;;;;;;4.13;1.30;;;;;;;18.98;45.78;101776.41;5123343;27;20138;-69
2023/02/17 07:16:35;;;;;;;2.88;1.27;;;;;;;19.00;46.09;101777.13;5122984;27;20054;-70
2023/02/17 07:19:00;;;;;;;3.90;1.50;;;;;;;18.96;45.97;101767.72;5123304;27;20600;-70
2023/02/17 07:21:25;;;;;;;3.30;1.53;;;;;;;18.98;46.01;101779.03;5122848;27;20495;-69
2023/02/17 07:23:51;;;;;;;5.40;1.20;;;;;;;18.97;46.17;101778.19;5123483;27;20263;-69
2023/02/17 07:26:16;;;;;;;4.18;1.30;;;;;;;19.01;46.25;101774.38;5122751;27;20811;-69
2023/02/17 07:28:41;;;;;;;4.45;1.50;;;;;;;19.02;46.52;101767.28;5102496;27;20038;-68
2023/02/17 07:31:09;;;;;;;5.57;1.40;;;;;;;19.02;46.23;101762.00;5122884;27;20087;-70
2023/02/17 07:33:35;;;;;;;3.10;1.30;;;;;;;19.01;46.47;101765.63;5123115;27;20387;-68
2023/02/17 07:36:05;;;;;;;3.67;1.30;;;;;;;19.01;46.66;101760.34;5122647;27;20031;-67
2023/02/17 07:38:31;;;;;;;3.00;1.30;;;;;;;19.02;46.71;101762.00;5122559;27;20364;-68
2023/02/17 07:40:56;;;;;;;3.88;1.50;;;;;;;19.04;46.54;101765.38;5123244;27;20095;-67
2023/02/17 07:43:21;;;;;;;3.80;1.50;;;;;;;19.03;46.53;101753.13;5104310;27;20039;-68
2023/02/17 07:45:46;;;;;;;2.80;1.20;;;;;;;19.04;46.55;101765.38;5122670;27;20404;-69
2023/02/17 07:48:12;;;;;;;21.23;1.88;;;;;;;18.99;46.51;101743.72;5122954;27;20032;-68
2023/02/17 07:50:37;;;;;;;3.97;1.45;;;;;;;19.06;46.51;101744.13;5122332;27;20031;-68
2023/02/17 07:53:03;;;;;;;3.45;1.45;;;;;;;19.02;46.41;101757.56;5122619;27;20424;-69
2023/02/17 07:55:28;;;;;;;2.95;1.27;;;;;;;19.04;46.31;101757.44;5122331;27;20031;-68
2023/02/17 07:57:53;;;;;;;2.90;1.40;;;;;;;19.03;46.17;101761.06;5122220;27;20467;-69
2023/02/17 08:00:19;;;;;;;4.55;2.75;;;;;;;19.02;46.25;101752.28;5122410;27;20038;-69
2023/02/17 08:02:45;;;;;;;2.78;2.00;;;;;;;19.05;46.09;101764.44;5122626;27;20058;-69
2023/02/17 08:05:10;;;;;;;3.40;1.83;;;;;;;19.03;46.17;101769.00;5122470;27;20079;-69
2023/02/17 08:07:35;;;;;;;2.60;1.30;;;;;;;19.03;46.08;101761.06;5122176;27;20519;-69
2023/02/17 08:13:18;;;;;;;4.13;1.65;;;;;;;19.02;46.17;101759.34;5122169;27;20034;-70
2023/02/17 08:15:33;;;;;;;3.88;1.40;;;;;;;19.06;46.27;101767.91;5121807;27;20046;-69
2023/02/17 08:17:59;;;;;;;2.67;1.40;;;;;;;19.00;46.59;101761.28;5121686;27;20031;-72
2023/02/17 08:20:25;;;;;;;2.45;1.17;;;;;;;18.99;46.34;101746.38;5122403;27;20026;-71
2023/02/17 08:22:50;;;;;;;3.35;1.52;;;;;;;18.98;46.32;101758.75;5103659;27;21193;-70
2023/02/17 08:25:15;;;;;;;2.97;1.20;;;;;;;19.02;46.63;101754.06;5122256;27;20031;-72
2023/02/17 08:27:41;;;;;;;2.67;1.40;;;;;;;19.06;46.54;101760.84;5121618;27;20035;-71
2023/02/17 08:30:07;;;;;;;3.08;1.40;;;;;;;19.03;46.47;101756.63;5122028;27;20990;-68
2023/02/17 08:32:32;;;;;;;3.38;1.38;;;;;;;19.05;46.30;101755.66;5121872;27;20035;-72
2023/02/17 08:34:57;;;;;;;3.67;1.40;;;;;;;19.07;46.48;101754.59;5122199;27;20043;-69
2023/02/17 08:37:23;;;;;;;3.38;1.45;;;;;;;19.05;46.49;101767.06;5121894;27;20422;-71
2023/02/17 08:39:48;;;;;;;4.07;1.30;;;;;;;19.07;46.45;101767.81;5119412;27;20054;-67
2023/02/17 08:42:14;;;;;;;4.78;1.58;;;;;;;19.13;46.18;101780.56;5120623;28;20039;-67
2023/02/17 08:44:39;;;;;;;4.40;1.38;;;;;;;19.10;46.57;101761.47;5121143;28;20130;-66
2023/02/17 08:47:05;;;;;;;2.45;1.25;;;;;;;19.17;46.46;101774.13;5102004;28;20539;-70
2023/02/17 08:49:31;;;;;;;6.43;1.50;;;;;;;19.18;46.43;101780.25;5120937;28;20031;-67
2023/02/17 08:51:57;;;;;;;4.15;1.50;;;;;;;19.18;46.57;101783.75;5120919;28;20076;-68
2023/02/17 08:54:22;;;;;;;3.90;1.35;;;;;;;19.18;46.39;101781.13;5121201;28;20039;-66
2023/02/17 08:56:48;;;;;;;3.15;1.23;;;;;;;19.20;46.52;101784.50;5121172;27;20432;-65
2023/02/17 08:59:14;;;;;;;3.88;1.58;;;;;;;19.17;46.26;101776.78;5121695;28;20035;-66
2023/02/17 09:01:41;;;;;;;3.55;1.48;;;;;;;19.21;46.21;101774.75;5121783;27;20483;-68
2023/02/17 09:04:09;;;;;;;2.58;1.17;;;;;;;19.19;46.22;101771.38;5121615;28;20031;-65
2023/02/17 09:06:46;;;;;;;3.22;1.33;;;;;;;19.16;46.27;101779.53;5121624;28;20408;-67
2023/02/17 09:09:13;;;;;;;4.53;1.52;;;;;;;19.16;46.14;101779.53;5121426;27;20042;-66
2023/02/17 09:11:39;;;;;;;3.72;1.27;;;;;;;19.19;46.32;101784.59;5121576;28;20027;-67
2023/02/17 09:14:05;;;;;;;1.85;1.10;;;;;;;19.16;46.25;101787.47;5121290;28;20047;-66
2023/02/17 09:16:30;;;;;;;2.88;1.30;;;;;;;19.13;46.40;101790.31;5121385;27;20036;-66
2023/02/17 09:18:56;;;;;;;2.97;1.27;;;;;;;19.15;46.43;101806.91;5121449;27;20034;-67
2023/02/17 09:21:22;;;;;;;3.85;1.50;;;;;;;19.12;46.36;101800.06;5121745;27;20031;-67
2023/02/17 09:23:47;;;;;;;4.60;1.30;;;;;;;19.12;46.70;101815.91;5121998;27;20799;-66
2023/02/17 09:26:15;;;;;;;3.05;1.27;;;;;;;19.13;46.42;101814.09;5121429;28;20123;-66
2023/02/17 09:28:41;;;;;;;2.17;1.10;;;;;;;19.15;46.28;101820.09;5120773;28;20027;-71
2023/02/17 09:31:16;;;;;;;3.42;1.40;;;;;;;19.11;46.66;101821.28;5121361;27;20057;-67
2023/02/17 09:33:42;;;;;;;3.40;1.17;;;;;;;19.18;46.49;101823.41;5118312;27;20023;-67
2023/02/17 09:36:11;;;;;;;2.95;1.40;;;;;;;19.21;46.50;101824.97;5121042;28;20038;-67
2023/02/17 09:38:37;;;;;;;4.00;1.40;;;;;;;19.19;46.46;101822.44;5119864;28;20041;-67
2023/02/17 09:41:16;;;;;;;4.47;1.30;;;;;;;19.19;46.44;101817.16;5120287;28;20399;-68
2023/02/17 09:43:41;;;;;;;4.00;1.10;;;;;;;19.24;46.53;101816.00;5120789;27;20031;-68
2023/02/17 09:46:40;;;;;;;3.40;1.27;;;;;;;19.23;46.53;101824.84;5120600;28;20031;-64
2023/02/17 09:49:18;;;;;;;2.45;1.23;;;;;;;19.24;46.66;101822.09;5115138;28;20077;-68
2023/02/17 09:52:21;;;;;;;2.70;1.23;;;;;;;19.28;46.50;101835.94;5120486;27;20035;-69
2023/02/17 09:54:56;;;;;;;3.00;1.23;;;;;;;19.28;46.41;101828.00;5118277;27;20682;-67
2023/02/17 09:57:26;;;;;;;4.05;1.48;;;;;;;19.27;46.24;101821.06;5129161;27;20037;-67
2023/02/17 09:59:57;;;;;;;3.00;1.58;;;;;;;19.30;46.31;101834.88;5129580;27;20135;-65
2023/02/17 10:02:31;;;;;;;2.70;1.30;;;;;;;19.28;46.22;101830.66;5094012;27;20084;-67
2023/02/17 10:05:01;;;;;;;2.90;1.20;;;;;;;19.25;46.56;101837.03;5127704;27;20552;-70
2023/02/17 10:07:33;;;;;;;5.68;1.50;;;;;;;19.26;46.24;101832.56;5126438;27;20038;-68
2023/02/17 10:10:15;;;;;;;2.85;1.20;;;;;;;19.27;46.45;101828.97;5125032;27;20079;-69
2023/02/17 10:12:47;;;;;;;4.63;1.27;;;;;;;19.29;46.00;101837.63;5125044;27;20458;-69
2023/02/17 10:15:18;;;;;;;3.25;1.27;;;;;;;19.29;46.07;101862.25;5106160;27;20054;-68
2023/02/17 10:17:43;;;;;;;3.13;1.50;;;;;;;19.29;46.08;101841.13;5124115;27;20373;-69
2023/02/17 10:20:16;;;;;;;3.38;1.48;;;;;;;19.24;45.96;101827.38;5124602;27;20054;-69
2023/02/17 10:22:46;;;;;;;3.75;1.63;;;;;;;19.27;46.43;101835.09;5122584;27;20527;-70
2023/02/17 10:25:19;;;;;;;3.97;1.77;;;;;;;19.27;46.34;101829.81;5124026;27;20551;-70
2023/02/17 10:27:47;;;;;;;4.15;1.58;;;;;;;19.27;46.31;101829.81;5123110;27;20031;-67
2023/02/17 10:30:21;;;;;;;2.83;1.50;;;;;;;19.23;46.40;101828.34;5123955;27;20039;-68
2023/02/17 10:33:11;;;;;;;3.72;2.10;;;;;;;19.25;46.27;101837.03;5123652;27;20038;-66
2023/02/17 10:35:51;;;;;;;2.70;1.65;;;;;;;19.27;46.31;101832.47;5123859;27;20039;-67
2023/02/17 10:38:44;;;;;;;3.67;1.70;;;;;;;19.29;46.43;101845.56;5123000;27;20027;-66
2023/02/17 10:41:14;;;;;;;3.25;1.70;;;;;;;19.32;46.20;101838.25;5123212;27;20066;-65
2023/02/17 10:43:41;;;;;;;3.53;1.58;;;;;;;19.32;45.96;101830.34;5122678;27;20027;-68
2023/02/17 10:46:07;;;;;;;3.83;1.60;;;;;;;19.37;45.96;101840.59;5123427;27;20027;-68
2023/02/17 10:48:41;;;;;;;3.30;1.67;;;;;;;19.41;45.99;101850.00;5123036;27;20054;-68
2023/02/17 10:51:13;;;;;;;2.50;1.50;;;;;;;19.38;45.79;101851.06;5123540;27;20478;-68
2023/02/17 10:53:39;;;;;;;2.97;1.55;;;;;;;19.40;45.58;101851.78;5124339;27;20096;-67
2023/02/17 10:56:20;;;;;;;2.28;1.50;;;;;;;19.37;45.72;101859.09;5123459;27;20031;-67
2023/02/17 10:58:48;;;;;;;6.70;1.80;;;;;;;19.39;45.55;101858.03;5123631;27;20129;-69
2023/02/17 11:01:13;;;;;;;3.30;1.52;;;;;;;19.37;45.61;101857.28;5123388;27;20035;-68
2023/02/17 11:03:42;;;;;;;3.85;1.70;;;;;;;19.34;45.61;101861.94;5121676;27;20437;-68
2023/02/17 11:06:21;;;;;;;3.38;1.80;;;;;;;19.30;45.73;101865.78;5123516;27;20027;-67
2023/02/17 11:08:53;;;;;;;2.97;1.60;;;;;;;19.29;45.71;101858.78;5123281;27;20035;-67
2023/02/17 11:11:22;;;;;;;2.85;1.55;;;;;;;19.29;45.91;101864.91;5122803;27;20088;-69
2023/02/17 11:14:16;;;;;;;3.63;1.70;;;;;;;19.28;45.36;101863.25;5104524;27;20384;-70
2023/02/17 11:16:57;;;;;;;3.22;1.65;;;;;;;19.27;45.70;101850.13;5122767;27;20027;-69
2023/02/17 11:19:33;;;;;;;2.60;1.60;;;;;;;19.24;46.03;101863.56;5122916;27;20440;-68
2023/02/17 11:22:00;;;;;;;4.65;1.50;;;;;;;19.25;46.18;101857.28;5122777;27;20121;-68
2023/02/17 11:24:27;;;;;;;3.03;1.55;;;;;;;19.24;45.98;101856.47;5121198;27;20038;-67
2023/02/17 11:26:59;;;;;;;4.45;1.58;;;;;;;19.19;46.10;101846.22;5122176;27;20031;-66
2023/02/17 11:29:25;;;;;;;2.25;1.42;;;;;;;19.26;46.16;101841.34;5121584;27;21220;-67
2023/02/17 11:32:05;;;;;;;5.72;1.92;;;;;;;19.22;46.26;101831.94;5120878;27;20031;-68